Time;durP1;ratioP1;P1;durP2;ratioP2;P2;SDS_P1;SDS_P2;PMS_P1;PMS_P2;Temp;Humidity;BMP_temperature;BMP_pressure;BME280_temperature;BME280_humidity;BME280_pressure;Samples;Min_cycle;Max_cycle;Signal;HPM_P1;HPM_P2
2021/05/18 00:00:20;;;;;;;0.50;0.50;;;;;;;8.65;80.95;96511.53;29395;199;63005;-62
2021/05/18 00:00:51;;;;;;;0.60;0.60;;;;;;;8.69;80.54;96525.25;29394;252;64009;-57
2021/05/18 00:01:22;;;;;;;0.50;0.50;;;;;;;8.66;80.81;96523.94;29395;202;63005;-59
2021/05/18 00:01:54;;;;;;;0.60;0.60;;;;;;;8.66;80.85;96525.87;29395;241;63009;-61
2021/05/18 00:02:26;;;;;;;0.60;0.60;;;;;;;8.74;80.25;96526.00;29395;265;63004;-61
2021/05/18 00:02:58;;;;;;;0.60;0.60;;;;;;;8.78;79.44;96525.44;29395;236;63013;-56
2021/05/18 00:03:30;;;;;;;0.50;0.50;;;;;;;8.78;79.46;96530.84;29395;202;63004;-60
2021/05/18 00:04:01;;;;;;;0.50;0.50;;;;;;;8.74;79.58;96525.22;29395;290;63009;-59
2021/05/18 00:04:32;;;;;;;0.50;0.50;;;;;;;8.71;79.91;96523.88;29395;218;63004;-58
2021/05/18 00:05:08;;;;;;;0.60;0.60;;;;;;;8.69;80.05;96527.97;29395;196;63008;-58
2021/05/18 00:05:41;;;;;;;0.60;0.60;;;;;;;8.65;80.60;96529.66;29395;286;63004;-58
2021/05/18 00:06:12;;;;;;;0.60;0.60;;;;;;;8.60;80.56;96521.62;29394;197;64009;-58
2021/05/18 00:06:44;;;;;;;0.60;0.60;;;;;;;8.57;81.35;96524.91;29394;227;64005;-60
2021/05/18 00:07:19;;;;;;;0.60;0.60;;;;;;;8.53;81.34;96530.06;29395;219;63009;-59
2021/05/18 00:08:01;;;;;;;0.50;0.50;;;;;;;8.49;81.53;96534.44;29395;218;63005;-60
2021/05/18 00:11:42;;;;;;;0.60;0.60;;;;;;;8.48;81.64;96538.22;29395;236;63009;-57
2021/05/18 00:11:54;;;;;;;0.50;0.50;;;;;;;8.56;80.43;96534.91;29417;203;63009;-60
2021/05/18 00:12:26;;;;;;;0.60;0.60;;;;;;;8.57;80.69;96535.72;29395;253;63004;-57
2021/05/18 00:12:57;;;;;;;0.50;0.50;;;;;;;8.59;80.57;96544.34;29395;214;63008;-63
2021/05/18 00:13:29;;;;;;;0.50;0.50;;;;;;;8.61;80.76;96531.34;29395;222;63005;-59
2021/05/18 00:14:00;;;;;;;0.50;0.50;;;;;;;8.61;80.57;96531.34;29395;213;63009;-59
2021/05/18 00:14:33;;;;;;;0.50;0.50;;;;;;;8.59;80.94;96533.53;29395;205;63005;-60
2021/05/18 00:15:12;;;;;;;0.50;0.50;;;;;;;8.55;80.78;96533.28;29395;230;63015;-60
2021/05/18 00:15:45;;;;;;;0.50;0.50;;;;;;;8.52;81.34;96544.69;29395;213;63005;-58
2021/05/18 00:16:17;;;;;;;0.50;0.50;;;;;;;8.46;81.75;96532.31;29394;208;64009;-58
2021/05/18 00:16:50;;;;;;;0.50;0.50;;;;;;;8.44;81.94;96536.38;29395;219;63005;-60
2021/05/18 00:17:23;;;;;;;0.60;0.60;;;;;;;8.43;81.86;96541.00;29395;197;63009;-59
2021/05/18 00:17:55;;;;;;;0.55;0.55;;;;;;;8.43;82.04;96541.00;29395;197;63004;-59
2021/05/18 00:18:36;;;;;;;0.50;0.50;;;;;;;8.39;82.12;96537.25;29395;214;63009;-61
2021/05/18 00:19:07;;;;;;;0.60;0.60;;;;;;;8.39;82.27;96545.34;29416;244;64004;-57
2021/05/18 00:19:38;;;;;;;0.60;0.60;;;;;;;8.39;82.51;96546.16;29395;202;63009;-59
2021/05/18 00:20:13;;;;;;;0.60;0.60;;;;;;;8.40;82.74;96546.97;29395;259;63000;-59
2021/05/18 00:20:45;;;;;;;0.50;0.50;;;;;;;8.40;82.41;96538.84;29395;208;63008;-59
2021/05/18 00:21:16;;;;;;;0.60;0.60;;;;;;;8.40;82.83;96546.97;29395;266;63005;-58
2021/05/18 00:21:47;;;;;;;0.55;0.55;;;;;;;8.38;82.69;96541.03;29395;303;63009;-59
2021/05/18 00:22:19;;;;;;;0.60;0.60;;;;;;;8.37;83.15;96542.13;29395;203;63005;-58
2021/05/18 00:22:50;;;;;;;0.60;0.60;;;;;;;8.37;83.11;96536.72;29395;196;63009;-57
2021/05/18 00:23:22;;;;;;;0.60;0.60;;;;;;;8.37;83.31;96542.94;29395;264;63005;-61
2021/05/18 00:23:53;;;;;;;0.57;0.57;;;;;;;8.38;82.92;96535.63;29395;279;63009;-59
2021/05/18 00:24:25;;;;;;;0.60;0.60;;;;;;;8.38;83.16;96541.03;29394;218;64005;-59
2021/05/18 00:24:56;;;;;;;0.60;0.60;;;;;;;8.39;83.02;96535.34;29395;204;63009;-59
2021/05/18 00:25:29;;;;;;;0.60;0.60;;;;;;;8.39;83.33;96540.75;29395;214;63004;-59
2021/05/18 00:26:01;;;;;;;0.60;0.60;;;;;;;8.38;82.69;96539.16;29395;227;63013;-59
2021/05/18 00:26:32;;;;;;;0.50;0.50;;;;;;;8.52;82.06;96538.47;29395;236;63004;-56
2021/05/18 00:27:04;;;;;;;0.60;0.60;;;;;;;8.59;81.35;96538.94;29394;250;64009;-58
2021/05/18 00:27:36;;;;;;;0.60;0.60;;;;;;;8.60;81.45;96535.94;29395;249;63004;-59
2021/05/18 00:28:11;;;;;;;0.60;0.60;;;;;;;8.59;81.44;96531.63;29395;203;63008;-58
2021/05/18 00:28:42;;;;;;;0.60;0.60;;;;;;;8.58;82.06;96532.72;29395;202;63005;-59
2021/05/18 00:29:14;;;;;;;0.60;0.60;;;;;;;8.54;81.77;96537.09;29395;273;63005;-59
2021/05/18 00:29:46;;;;;;;0.60;0.60;;;;;;;8.50;82.08;96536.06;29394;312;64005;-56
2021/05/18 00:30:19;;;;;;;0.60;0.60;;;;;;;8.49;82.30;96533.63;29395;217;63009;-60
2021/05/18 00:30:50;;;;;;;0.50;0.50;;;;;;;8.47;82.24;96539.31;29395;307;63005;-59
2021/05/18 00:31:22;;;;;;;0.60;0.60;;;;;;;8.45;81.88;96540.72;29395;268;63009;-59
2021/05/18 00:31:53;;;;;;;0.60;0.60;;;;;;;8.48;81.73;96538.22;29394;202;64005;-59
2021/05/18 00:32:25;;;;;;;0.55;0.55;;;;;;;8.53;81.49;96545.50;29395;208;63009;-59
2021/05/18 00:32:57;;;;;;;0.52;0.52;;;;;;;8.52;81.76;96536.56;29394;202;64004;-59
2021/05/18 00:33:29;;;;;;;0.60;0.60;;;;;;;8.49;81.22;96545.25;29394;226;64009;-61
2021/05/18 00:34:02;;;;;;;0.57;0.57;;;;;;;8.47;81.86;96542.03;29395;208;63000;-64
2021/05/18 00:34:34;;;;;;;0.60;0.60;;;;;;;8.58;81.11;96538.13;29395;209;63009;-56
2021/05/18 00:35:11;;;;;;;0.60;0.60;;;;;;;8.60;80.87;96546.75;29395;235;63004;-59
2021/05/18 00:35:44;;;;;;;0.60;0.60;;;;;;;8.58;80.79;96543.53;29395;269;63008;-62
2021/05/18 00:36:15;;;;;;;0.60;0.60;;;;;;;8.64;80.87;96536.16;29395;198;63005;-58
2021/05/18 00:36:46;;;;;;;0.60;0.60;;;;;;;8.61;80.79;96542.97;29395;286;63009;-60
2021/05/18 00:37:17;;;;;;;0.60;0.60;;;;;;;8.57;80.85;96547.34;29395;225;63005;-58
2021/05/18 00:37:50;;;;;;;0.60;0.60;;;;;;;8.54;81.44;96545.19;29395;230;63009;-59
2021/05/18 00:38:22;;;;;;;0.60;0.60;;;;;;;8.51;81.68;96543.06;29394;197;64005;-58
2021/05/18 00:38:53;;;;;;;0.50;0.50;;;;;;;8.51;81.99;96542.25;29395;199;63011;-59
2021/05/18 00:39:25;;;;;;;0.57;0.57;;;;;;;8.51;81.93;96543.06;29395;198;63015;-59
2021/05/18 00:39:56;;;;;;;0.60;0.60;;;;;;;8.49;81.52;96539.84;29395;258;63009;-58
2021/05/18 00:40:28;;;;;;;0.60;0.60;;;;;;;8.54;81.47;96537.09;29395;224;63004;-61
2021/05/18 00:41:00;;;;;;;0.60;0.60;;;;;;;8.56;81.24;96545.72;29395;198;63009;-59
2021/05/18 00:41:31;;;;;;;0.60;0.60;;;;;;;8.53;81.23;96540.87;29395;197;63004;-60
2021/05/18 00:42:12;;;;;;;0.60;0.60;;;;;;;8.48;81.28;96545.53;29394;239;64008;-59
2021/05/18 00:42:45;;;;;;;;;;;;;;;8.47;81.52;96543.94;29996;983;6000;-61
2021/05/18 00:43:17;;;;;;;0.60;0.60;;;;;;;8.47;81.27;96538.53;29400;260;63000;-58
2021/05/18 00:43:48;;;;;;;0.60;0.60;;;;;;;8.49;81.28;96549.84;29395;212;63005;-60
2021/05/18 00:44:19;;;;;;;0.60;0.60;;;;;;;8.47;81.46;96547.44;29395;249;63000;-59
2021/05/18 00:44:53;;;;;;;0.60;0.60;;;;;;;8.50;81.48;96540.66;29395;220;63005;-63
2021/05/18 00:45:33;;;;;;;0.60;0.60;;;;;;;8.59;80.27;96550.56;29395;247;63000;-59
2021/05/18 00:46:06;;;;;;;0.50;0.50;;;;;;;8.68;80.05;96540.69;29417;234;63005;-62
2021/05/18 00:46:37;;;;;;;0.60;0.60;;;;;;;8.84;79.15;96541.31;29395;246;63000;-60
2021/05/18 00:47:09;;;;;;;0.60;0.60;;;;;;;8.84;78.95;96548.63;29394;202;64009;-61
2021/05/18 00:47:41;;;;;;;0.50;0.50;;;;;;;8.80;79.55;96545.69;29394;202;64004;-59
2021/05/18 00:48:13;;;;;;;0.60;0.60;;;;;;;8.73;79.79;96551.44;29395;233;63009;-58
2021/05/18 00:48:56;;;;;;;0.60;0.60;;;;;;;8.65;79.66;96554.81;29395;214;63004;-61
2021/05/18 00:49:27;;;;;;;0.60;0.60;;;;;;;8.53;80.85;96554.41;29395;306;63008;-60
2021/05/18 00:49:58;;;;;;;0.60;0.60;;;;;;;8.50;80.66;96554.97;29395;245;63004;-64
2021/05/18 00:50:30;;;;;;;0.50;0.50;;;;;;;8.64;80.11;96549.69;29395;225;63009;-60
2021/05/18 00:51:06;;;;;;;0.50;0.50;;;;;;;8.67;79.48;96551.78;29395;280;63005;-60
2021/05/18 00:51:40;;;;;;;0.60;0.60;;;;;;;8.65;79.73;96554.81;29395;252;63009;-60
2021/05/18 00:52:12;;;;;;;0.60;0.60;;;;;;;8.62;79.99;96560.81;29395;204;63005;-60
2021/05/18 00:52:43;;;;;;;0.60;0.60;;;;;;;8.57;80.63;96554.63;29394;259;64009;-59
2021/05/18 00:53:15;;;;;;;0.60;0.60;;;;;;;8.53;80.90;96562.53;29395;276;63005;-59
2021/05/18 00:53:47;;;;;;;0.60;0.60;;;;;;;8.49;81.21;96560.66;29395;235;63009;-60
2021/05/18 00:54:25;;;;;;;0.60;0.60;;;;;;;8.49;81.20;96566.88;29395;203;63008;-59
2021/05/18 00:55:06;;;;;;;0.50;0.50;;;;;;;8.47;81.71;96552.84;29395;208;63009;-57
2021/05/18 00:55:42;;;;;;;0.60;0.60;;;;;;;8.46;81.70;96553.12;29417;231;63013;-59
2021/05/18 00:58:25;;;;;;;0.60;0.60;;;;;;;8.46;82.05;96561.25;29395;226;63009;-60
2021/05/18 00:58:33;;;;;;;0.60;0.60;;;;;;;8.45;82.18;96567.75;29394;212;64009;-59
2021/05/18 00:59:05;;;;;;;0.60;0.60;;;;;;;8.47;82.42;96565.56;29395;214;63005;-59
2021/05/18 00:59:37;;;;;;;0.60;0.60;;;;;;;8.45;82.42;96568.56;29395;240;63009;-58
2021/05/18 01:00:12;;;;;;;0.50;0.50;;;;;;;8.55;81.28;96564.94;29395;199;63011;-57
2021/05/18 01:00:44;;;;;;;0.60;0.60;;;;;;;8.56;81.06;96572.75;29395;202;63009;-59
2021/05/18 01:01:20;;;;;;;0.50;0.50;;;;;;;8.53;82.11;96567.94;29395;278;63005;-59
2021/05/18 01:01:51;;;;;;;0.60;0.60;;;;;;;8.54;81.54;96564.13;29395;223;63009;-67
2021/05/18 01:02:24;;;;;;;0.60;0.60;;;;;;;8.59;80.61;96565.97;29395;273;63004;-58
2021/05/18 01:02:55;;;;;;;0.60;0.60;;;;;;;8.62;80.32;96573.50;29394;295;64009;-60
2021/05/18 01:03:27;;;;;;;0.52;0.52;;;;;;;8.61;80.50;96567.31;29395;206;63004;-61
2021/05/18 01:04:01;;;;;;;0.60;0.60;;;;;;;8.62;80.82;96566.22;29395;224;63009;-61
2021/05/18 01:04:32;;;;;;;0.60;0.60;;;;;;;8.60;80.75;96568.41;29394;252;64004;-61
2021/05/18 01:05:10;;;;;;;0.60;0.60;;;;;;;8.62;80.62;96571.63;29395;216;63018;-60
2021/05/18 01:06:33;;;;;;;0.52;0.52;;;;;;;8.58;80.69;96567.88;29376;218;126001;-62
2021/05/18 01:07:04;;;;;;;0.57;0.57;;;;;;;8.58;81.05;96576.00;29395;276;63005;-60
2021/05/18 01:07:35;;;;;;;0.50;0.50;;;;;;;8.59;80.75;96572.19;29395;208;63009;-60
2021/05/18 01:08:06;;;;;;;0.60;0.60;;;;;;;8.64;80.56;96569.44;29395;215;63012;-59
2021/05/18 01:08:42;;;;;;;0.60;0.60;;;;;;;8.66;80.12;96575.34;29395;199;63009;-59
2021/05/18 01:09:14;;;;;;;0.60;0.60;;;;;;;8.64;80.02;96572.13;29394;246;64005;-58
2021/05/18 01:09:46;;;;;;;0.60;0.60;;;;;;;8.61;80.19;96570.00;29395;256;63009;-60
2021/05/18 01:10:17;;;;;;;0.50;0.50;;;;;;;8.59;80.54;96580.31;29395;283;63004;-61
2021/05/18 01:10:49;;;;;;;0.52;0.52;;;;;;;8.61;80.77;96570.00;29395;197;63009;-58
2021/05/18 01:11:23;;;;;;;0.50;0.50;;;;;;;8.63;80.91;96570.53;29395;208;63004;-62
2021/05/18 01:11:54;;;;;;;0.50;0.50;;;;;;;8.73;79.22;96567.69;29395;237;63009;-60
2021/05/18 01:12:26;;;;;;;0.60;0.60;;;;;;;8.79;79.28;96559.50;29395;292;63004;-59
2021/05/18 01:12:57;;;;;;;0.52;0.52;;;;;;;8.76;79.33;96570.91;29395;286;63009;-59
2021/05/18 01:13:30;;;;;;;0.60;0.60;;;;;;;8.76;79.29;96570.91;29395;209;63005;-67
2021/05/18 01:14:08;;;;;;;0.60;0.60;;;;;;;8.88;78.45;96563.19;29394;256;63997;-60
2021/05/18 01:14:39;;;;;;;0.60;0.60;;;;;;;8.84;78.49;96567.56;29394;222;64005;-59
2021/05/18 01:15:12;;;;;;;0.50;0.50;;;;;;;8.78;79.59;96568.72;29395;224;63009;-60
2021/05/18 01:15:43;;;;;;;0.60;0.60;;;;;;;8.71;79.91;96574.47;29395;202;63005;-58
2021/05/18 01:16:15;;;;;;;0.60;0.60;;;;;;;8.62;80.30;96570.81;29395;282;63009;-61
2021/05/18 01:16:49;;;;;;;0.50;0.50;;;;;;;8.58;81.16;96570.56;29395;220;63005;-60
2021/05/18 01:17:22;;;;;;;0.60;0.60;;;;;;;8.56;81.14;96572.75;29394;263;64009;-67
2021/05/18 01:17:53;;;;;;;0.60;0.60;;;;;;;8.62;80.57;96570.81;29395;217;63004;-62
2021/05/18 01:18:24;;;;;;;0.60;0.60;;;;;;;8.65;80.05;96581.06;29395;220;63009;-61
2021/05/18 01:18:55;;;;;;;0.60;0.60;;;;;;;8.67;79.50;96568.81;29395;236;63004;-60
2021/05/18 01:19:27;;;;;;;0.60;0.60;;;;;;;8.69;79.74;96566.62;29394;213;64009;-60
2021/05/18 01:20:16;;;;;;;0.50;0.50;;;;;;;8.68;79.81;96569.63;29395;218;63004;-60
2021/05/18 01:20:58;;;;;;;0.60;0.60;;;;;;;8.63;80.32;96575.94;29395;197;63009;-59
2021/05/18 01:21:30;;;;;;;0.50;0.50;;;;;;;8.57;80.27;96568.97;29395;227;63005;-59
2021/05/18 01:22:02;;;;;;;0.60;0.60;;;;;;;8.55;80.63;96565.75;29395;225;63009;-60
2021/05/18 01:22:34;;;;;;;0.52;0.52;;;;;;;8.56;80.93;96577.38;29395;196;63005;-58
2021/05/18 01:23:05;;;;;;;0.60;0.60;;;;;;;8.58;80.88;96573.28;29395;198;63009;-60
2021/05/18 01:23:37;;;;;;;0.52;0.52;;;;;;;8.57;80.15;96568.97;29395;210;63005;-60
2021/05/18 01:24:10;;;;;;;0.50;0.50;;;;;;;8.62;80.62;96571.63;29395;252;63009;-54
2021/05/18 01:24:41;;;;;;;0.60;0.60;;;;;;;8.63;79.97;96573.22;29394;249;64004;-58
2021/05/18 01:25:15;;;;;;;0.60;0.60;;;;;;;8.64;80.18;96579.44;29395;273;63009;-60
2021/05/18 01:25:47;;;;;;;0.60;0.60;;;;;;;8.61;79.93;96575.41;29395;226;63004;-57
2021/05/18 01:26:19;;;;;;;0.60;0.60;;;;;;;8.59;80.37;96576.78;29395;280;63017;-58
2021/05/18 01:26:50;;;;;;;0.50;0.50;;;;;;;8.56;80.34;96574.66;29395;197;63004;-61
2021/05/18 01:27:22;;;;;;;0.60;0.60;;;;;;;8.61;80.67;96575.41;29395;204;63008;-60
2021/05/18 01:27:53;;;;;;;0.60;0.60;;;;;;;8.62;80.54;96577.03;29395;286;63004;-60
2021/05/18 01:28:26;;;;;;;0.60;0.60;;;;;;;8.62;80.30;96576.22;29395;207;63009;-59
2021/05/18 01:28:57;;;;;;;0.60;0.60;;;;;;;8.60;80.67;96578.41;29395;202;63005;-59
2021/05/18 01:29:29;;;;;;;0.52;0.52;;;;;;;8.61;80.85;96580.03;29395;197;63009;-54
2021/05/18 01:30:00;;;;;;;0.50;0.50;;;;;;;8.68;80.09;96575.84;29394;203;64005;-60
2021/05/18 01:30:31;;;;;;;0.60;0.60;;;;;;;8.71;79.73;96580.69;29395;255;63018;-60
2021/05/18 01:31:04;;;;;;;0.60;0.60;;;;;;;8.72;79.68;96571.47;29395;196;63011;-60
2021/05/18 01:31:37;;;;;;;0.60;0.60;;;;;;;8.72;79.90;96576.09;29394;244;64009;-63
2021/05/18 01:32:08;;;;;;;0.60;0.60;;;;;;;8.70;79.84;96573.66;29395;271;63005;-59
2021/05/18 01:32:42;;;;;;;0.60;0.60;;;;;;;8.72;79.85;96579.59;29395;202;63009;-59
2021/05/18 01:33:14;;;;;;;0.50;0.50;;;;;;;8.70;79.71;96579.06;29395;257;63004;-58
2021/05/18 01:33:45;;;;;;;0.60;0.60;;;;;;;8.73;80.10;96578.50;29395;280;63009;-64
2021/05/18 01:34:18;;;;;;;0.60;0.60;;;;;;;8.78;79.39;96585.75;29395;278;63004;-62
2021/05/18 01:34:49;;;;;;;0.55;0.55;;;;;;;8.78;79.05;96574.13;29395;231;63008;-59
2021/05/18 01:35:20;;;;;;;0.50;0.50;;;;;;;8.76;79.31;96587.13;29395;196;63004;-62
2021/05/18 01:35:54;;;;;;;0.60;0.60;;;;;;;8.77;79.68;96586.03;29395;301;63016;-61
2021/05/18 01:36:25;;;;;;;0.60;0.60;;;;;;;8.77;79.39;96586.03;29395;221;63005;-60
2021/05/18 01:36:56;;;;;;;0.60;0.60;;;;;;;8.77;79.68;96583.34;29394;204;64009;-63
2021/05/18 01:37:28;;;;;;;0.60;0.60;;;;;;;8.82;79.38;96591.41;29395;242;63005;-57
2021/05/18 01:38:00;;;;;;;0.50;0.50;;;;;;;8.79;79.69;96581.97;29395;248;63009;-58
2021/05/18 01:39:44;;;;;;;0.60;0.60;;;;;;;8.73;79.90;96583.91;29417;206;63009;-57
2021/05/18 01:42:54;;;;;;;0.60;0.60;;;;;;;8.62;80.70;96587.03;29395;256;63008;-62
2021/05/18 01:43:27;;;;;;;0.60;0.60;;;;;;;8.60;81.02;96595.44;29394;241;64005;-60
2021/05/18 01:44:00;;;;;;;0.60;0.60;;;;;;;8.58;81.07;96591.41;29395;211;63009;-60
2021/05/18 01:44:32;;;;;;;0.60;0.60;;;;;;;8.55;81.13;96584.66;29395;288;63005;-60
2021/05/18 01:45:11;;;;;;;0.60;0.60;;;;;;;8.51;82.27;96594.44;29395;202;63009;-60
2021/05/18 01:45:44;;;;;;;0.60;0.60;;;;;;;8.46;82.31;96583.69;29377;313;125009;-60
2021/05/18 01:46:17;;;;;;;0.50;0.50;;;;;;;8.43;82.60;96589.66;29373;232;63005;-60
2021/05/18 01:46:48;;;;;;;0.60;0.60;;;;;;;8.43;82.66;96583.44;29395;282;63000;-59
2021/05/18 01:47:21;;;;;;;0.50;0.50;;;;;;;8.45;82.33;96583.97;29395;225;63004;-63
2021/05/18 01:47:57;;;;;;;0.50;0.50;;;;;;;8.66;80.92;96583.44;29395;275;63007;-65
2021/05/18 01:48:34;;;;;;;0.60;0.60;;;;;;;8.79;79.99;96575.75;29394;280;64009;-66
2021/05/18 01:49:09;;;;;;;0.60;0.60;;;;;;;8.81;79.42;96578.97;29395;202;63004;-60
2021/05/18 01:49:40;;;;;;;0.60;0.60;;;;;;;8.74;80.26;96577.41;29394;268;64008;-62
2021/05/18 01:50:14;;;;;;;0.60;0.60;;;;;;;8.72;80.22;96574.19;29395;199;63005;-63
2021/05/18 01:50:48;;;;;;;0.60;0.60;;;;;;;8.69;80.66;96577.47;29395;202;63009;-60
2021/05/18 01:51:19;;;;;;;0.60;0.60;;;;;;;8.61;81.31;96571.91;29395;210;63005;-59
2021/05/18 01:51:56;;;;;;;0.60;0.60;;;;;;;8.53;82.08;96567.94;29395;216;63009;-60
2021/05/18 01:52:27;;;;;;;0.52;0.52;;;;;;;8.46;82.24;96572.06;29395;202;63005;-62
2021/05/18 01:52:59;;;;;;;0.60;0.60;;;;;;;8.41;82.65;96570.22;29395;256;63009;-60
2021/05/18 01:53:31;;;;;;;0.50;0.50;;;;;;;8.37;82.80;96563.75;29395;204;63005;-61
2021/05/18 01:54:14;;;;;;;0.60;0.60;;;;;;;8.31;82.78;96559.50;29394;225;64009;-60
2021/05/18 01:54:46;;;;;;;0.60;0.60;;;;;;;8.28;82.80;96568.97;29394;216;64004;-62
2021/05/18 01:55:25;;;;;;;0.60;0.60;;;;;;;8.26;83.32;96564.94;29395;241;63009;-61
2021/05/18 01:56:18;;;;;;;0.60;0.60;;;;;;;8.24;83.43;96569.84;29395;213;63004;-60
2021/05/18 01:57:15;;;;;;;0.60;0.60;;;;;;;8.22;83.88;96563.91;29395;208;63008;-60
2021/05/18 01:57:44;;;;;;;0.60;0.60;;;;;;;8.18;83.74;96558.25;29395;216;63005;-60
2021/05/18 01:58:16;;;;;;;0.60;0.60;;;;;;;8.19;84.64;96572.59;29395;265;63009;-60
2021/05/18 01:58:47;;;;;;;0.60;0.60;;;;;;;8.16;84.39;96567.75;29395;203;63011;-60
2021/05/18 01:59:22;;;;;;;0.60;0.60;;;;;;;8.14;84.64;96569.91;29395;235;63009;-60
2021/05/18 01:59:54;;;;;;;0.60;0.60;;;;;;;8.17;84.65;96562.06;29394;239;64005;-60
2021/05/18 02:00:29;;;;;;;0.60;0.60;;;;;;;8.21;84.77;96570.41;29395;284;63009;-62
2021/05/18 02:01:00;;;;;;;0.60;0.60;;;;;;;8.24;84.46;96565.22;29395;235;63005;-60
2021/05/18 02:01:31;;;;;;;0.50;0.50;;;;;;;8.32;83.50;96563.78;29395;225;63009;-59
2021/05/18 02:02:05;;;;;;;0.60;0.60;;;;;;;8.31;83.72;96567.59;29395;288;63004;-61
2021/05/18 02:02:36;;;;;;;0.60;0.60;;;;;;;8.31;83.54;96567.59;29395;278;63009;-60
2021/05/18 02:03:07;;;;;;;0.60;0.60;;;;;;;8.28;84.01;96563.56;29395;240;63010;-62
2021/05/18 02:03:38;;;;;;;0.60;0.60;;;;;;;8.30;83.94;96571.41;29395;218;63009;-62
2021/05/18 02:04:28;;;;;;;0.60;0.60;;;;;;;8.29;83.62;96572.50;29395;281;63004;-60
2021/05/18 02:05:05;;;;;;;0.60;0.60;;;;;;;8.32;83.57;96571.87;29394;220;64009;-55
2021/05/18 02:05:40;;;;;;;0.60;0.60;;;;;;;8.40;82.28;96574.00;29395;230;63005;-63
2021/05/18 02:06:18;;;;;;;0.60;0.60;;;;;;;8.47;81.77;96569.06;29395;216;63009;-60
2021/05/18 02:06:49;;;;;;;0.60;0.60;;;;;;;8.43;82.13;96568.03;29395;213;63005;-61
2021/05/18 02:07:31;;;;;;;0.60;0.60;;;;;;;8.41;82.34;96578.31;29395;282;63009;-67
2021/05/18 02:08:05;;;;;;;0.60;0.60;;;;;;;8.44;81.51;96569.63;29395;275;63005;-63
2021/05/18 02:08:37;;;;;;;0.60;0.60;;;;;;;8.50;81.03;96573.91;29395;248;63009;-60
2021/05/18 02:09:10;;;;;;;0.60;0.60;;;;;;;8.49;81.01;96577.69;29395;273;63004;-60
2021/05/18 02:09:43;;;;;;;0.60;0.60;;;;;;;8.46;81.21;96575.56;29395;226;63009;-61
2021/05/18 02:10:17;;;;;;;0.60;0.60;;;;;;;8.44;81.73;96574.25;29394;261;64004;-61
2021/05/18 02:10:49;;;;;;;0.50;0.50;;;;;;;8.42;82.17;96576.41;29395;202;63009;-61
2021/05/18 02:11:20;;;;;;;0.60;0.60;;;;;;;8.40;82.06;96585.63;29394;217;64004;-61
2021/05/18 02:11:51;;;;;;;0.60;0.60;;;;;;;8.38;82.68;96581.59;29395;290;63008;-61
2021/05/18 02:12:23;;;;;;;0.60;0.60;;;;;;;8.35;83.59;96584.88;29395;241;63004;-61
2021/05/18 02:12:55;;;;;;;0.60;0.60;;;;;;;8.33;83.23;96592.47;29395;215;63009;-62
2021/05/18 02:13:26;;;;;;;0.50;0.50;;;;;;;8.30;83.15;96584.91;29395;235;63005;-61
2021/05/18 02:14:02;;;;;;;0.60;0.60;;;;;;;8.29;83.38;96586.00;29395;321;63009;-61
2021/05/18 02:14:35;;;;;;;0.60;0.60;;;;;;;8.27;83.23;96585.47;29395;205;63005;-60
2021/05/18 02:16:28;;;;;;;0.60;0.60;;;;;;;8.32;82.55;96582.69;29395;202;63005;-61
2021/05/18 02:19:28;;;;;;;0.60;0.60;;;;;;;8.23;83.43;96585.25;29395;307;63008;-61
2021/05/18 02:20:14;;;;;;;0.60;0.60;;;;;;;8.24;83.54;96586.06;29395;196;63005;-60
2021/05/18 02:24:47;;;;;;;0.60;0.60;;;;;;;8.21;83.48;96592.03;29395;235;63009;-59
2021/05/18 02:25:22;;;;;;;0.60;0.60;;;;;;;8.24;82.71;96586.84;29394;260;64004;-59
2021/05/18 02:25:53;;;;;;;0.60;0.60;;;;;;;8.24;82.49;96578.75;29395;205;63009;-62
2021/05/18 02:26:26;;;;;;;0.60;0.60;;;;;;;8.30;82.79;96595.72;29395;223;63004;-61
2021/05/18 02:26:57;;;;;;;0.60;0.60;;;;;;;8.32;82.38;96582.69;29395;223;63008;-60
2021/05/18 02:27:29;;;;;;;0.60;0.60;;;;;;;8.32;82.29;96588.09;29395;209;63004;-60
2021/05/18 02:28:02;;;;;;;0.60;0.60;;;;;;;8.29;82.08;96594.13;29394;254;64009;-59
2021/05/18 02:28:35;;;;;;;0.60;0.60;;;;;;;8.26;82.11;96581.16;29395;239;63005;-59
2021/05/18 02:29:06;;;;;;;0.60;0.60;;;;;;;8.24;82.59;96591.44;29394;265;64009;-60
2021/05/18 02:29:39;;;;;;;0.60;0.60;;;;;;;8.23;82.45;96589.84;29395;202;63005;-60
2021/05/18 02:30:12;;;;;;;0.60;0.60;;;;;;;8.21;82.44;96587.41;29395;231;63009;-61
2021/05/18 02:30:45;;;;;;;0.60;0.60;;;;;;;8.19;82.89;96596.91;29395;202;63005;-58
2021/05/18 02:31:18;;;;;;;0.60;0.60;;;;;;;8.17;82.78;96596.38;29395;223;63009;-61
2021/05/18 02:31:53;;;;;;;0.60;0.60;;;;;;;8.16;83.25;96592.06;29395;228;63004;-60
2021/05/18 02:32:26;;;;;;;0.50;0.50;;;;;;;8.16;83.12;96598.28;29395;266;63009;-60
2021/05/18 02:32:57;;;;;;;0.60;0.60;;;;;;;8.13;83.23;96598.03;29394;210;64004;-64
2021/05/18 02:33:29;;;;;;;0.52;0.52;;;;;;;8.23;82.58;96596.06;29395;257;63009;-60
2021/05/18 02:34:00;;;;;;;0.50;0.50;;;;;;;8.23;82.28;96596.06;29395;202;63004;-60
2021/05/18 02:34:32;;;;;;;0.60;0.60;;;;;;;8.24;82.44;96603.06;29395;270;63008;-61
2021/05/18 02:35:07;;;;;;;0.60;0.60;;;;;;;8.26;82.33;96602.78;29395;273;63005;-59
2021/05/18 02:35:38;;;;;;;0.60;0.60;;;;;;;8.25;82.65;96599.28;29395;207;63009;-60
2021/05/18 02:36:09;;;;;;;0.60;0.60;;;;;;;8.26;82.70;96594.69;29394;206;64005;-61
2021/05/18 02:36:42;;;;;;;0.60;0.60;;;;;;;8.28;82.54;96600.59;29395;202;63009;-62
2021/05/18 02:37:16;;;;;;;0.60;0.60;;;;;;;8.33;82.48;96601.37;29395;273;63005;-62
2021/05/18 02:37:48;;;;;;;0.60;0.60;;;;;;;8.46;81.77;96604.50;29395;242;63009;-59
2021/05/18 02:38:20;;;;;;;0.60;0.60;;;;;;;8.51;80.80;96590.94;29395;215;63005;-61
2021/05/18 02:38:52;;;;;;;0.60;0.60;;;;;;;8.50;80.77;96595.53;29395;283;63009;-59
2021/05/18 02:39:23;;;;;;;0.60;0.60;;;;;;;8.47;81.13;96600.72;29395;249;63004;-60
2021/05/18 02:39:54;;;;;;;0.60;0.60;;;;;;;8.46;81.46;96594.50;29395;247;63009;-57
2021/05/18 02:40:29;;;;;;;0.60;0.60;;;;;;;8.48;81.22;96591.50;29395;198;63004;-58
2021/05/18 02:41:00;;;;;;;0.60;0.60;;;;;;;8.47;81.78;96596.09;29395;241;63008;-62
2021/05/18 02:41:31;;;;;;;0.60;0.60;;;;;;;8.43;81.90;96600.47;29394;294;64004;-58
2021/05/18 02:42:03;;;;;;;0.60;0.60;;;;;;;8.39;81.67;96605.62;29395;218;63008;-60
2021/05/18 02:42:34;;;;;;;0.60;0.60;;;;;;;8.41;81.99;96608.06;29395;218;63009;-59
2021/05/18 02:43:06;;;;;;;0.60;0.60;;;;;;;8.43;81.67;96599.66;29395;223;63009;-58
2021/05/18 02:44:43;;;;;;;0.60;0.60;;;;;;;8.42;81.45;96604.25;29395;226;63009;-58
2021/05/18 02:45:25;;;;;;;0.60;0.60;;;;;;;8.39;81.74;96604.84;29417;299;63005;-59
2021/05/18 02:46:06;;;;;;;0.60;0.60;;;;;;;8.37;82.05;96607.00;29395;228;63009;-60
2021/05/18 02:49:12;;;;;;;0.60;0.60;;;;;;;8.52;81.26;96601.47;29395;202;63008;-60
2021/05/18 02:49:43;;;;;;;0.60;0.60;;;;;;;8.55;80.94;96600.09;29395;210;63001;-63
2021/05/18 02:50:15;;;;;;;0.60;0.60;;;;;;;8.59;80.48;96601.94;29395;224;63009;-59
2021/05/18 02:50:47;;;;;;;0.60;0.60;;;;;;;8.54;81.05;96602.00;29395;207;63005;-58
2021/05/18 02:51:18;;;;;;;0.60;0.60;;;;;;;8.52;81.42;96606.06;29395;207;63009;-60
2021/05/18 02:51:50;;;;;;;0.60;0.60;;;;;;;8.50;81.26;96602.84;29395;229;63005;-59
2021/05/18 02:52:22;;;;;;;0.60;0.60;;;;;;;8.49;81.32;96604.75;29395;211;63009;-60
2021/05/18 02:52:53;;;;;;;0.50;0.50;;;;;;;8.51;81.45;96602.56;29395;223;63005;-61
2021/05/18 02:53:25;;;;;;;0.60;0.60;;;;;;;8.61;80.40;96607.88;29394;254;64009;-61
2021/05/18 02:53:57;;;;;;;0.50;0.50;;;;;;;8.72;79.21;96605.84;29395;197;63004;-62
2021/05/18 02:54:28;;;;;;;0.60;0.60;;;;;;;8.73;79.06;96597.44;29395;240;63009;-59
2021/05/18 02:55:00;;;;;;;0.60;0.60;;;;;;;8.70;78.90;96608.81;29395;264;63004;-60
2021/05/18 02:55:46;;;;;;;0.55;0.55;;;;;;;8.78;78.29;96601.19;29395;204;63009;-66
2021/05/18 02:56:26;;;;;;;0.60;0.60;;;;;;;8.87;77.61;96599.47;29395;214;63004;-63
2021/05/18 02:57:03;;;;;;;0.60;0.60;;;;;;;8.80;78.06;96599.00;29395;216;63009;-61
2021/05/18 02:57:36;;;;;;;0.60;0.60;;;;;;;8.74;78.60;96600.94;29394;197;64005;-67
2021/05/18 02:58:09;;;;;;;0.60;0.60;;;;;;;8.73;78.49;96605.56;29395;197;63009;-57
2021/05/18 02:58:42;;;;;;;0.60;0.60;;;;;;;8.68;78.75;96608.31;29394;241;64005;-63
2021/05/18 02:59:17;;;;;;;0.60;0.60;;;;;;;8.65;79.01;96606.19;29395;254;63005;-61
2021/05/18 02:59:53;;;;;;;0.60;0.60;;;;;;;8.57;79.20;96600.63;29417;205;63005;-60
2021/05/18 03:00:25;;;;;;;0.65;0.65;;;;;;;8.56;79.45;96604.41;29394;241;64009;-66
2021/05/18 03:00:57;;;;;;;0.60;0.60;;;;;;;8.57;79.21;96601.41;29395;216;63000;-61